sensor_id;sensor_type;location;lat;lon;timestamp;P1;durP1;ratioP1;P2;durP2;ratioP2
14294;SDS011;7231;59.370;18.016;2023-12-20T00:01:25;10.03;;;1.53;;
14294;SDS011;7231;59.370;18.016;2023-12-20T00:03:53;4.73;;;1.27;;
14294;SDS011;7231;59.370;18.016;2023-12-20T00:06:21;12.37;;;1.83;;
14294;SDS011;7231;59.370;18.016;2023-12-20T00:08:49;8.50;;;1.80;;
14294;SDS011;7231;59.370;18.016;2023-12-20T00:11:17;6.63;;;1.77;;
14294;SDS011;7231;59.370;18.016;2023-12-20T00:13:45;10.83;;;1.63;;
14294;SDS011;7231;59.370;18.016;2023-12-20T00:16:17;9.10;;;1.47;;
14294;SDS011;7231;59.370;18.016;2023-12-20T00:18:47;8.73;;;1.53;;
14294;SDS011;7231;59.370;18.016;2023-12-20T00:21:15;12.80;;;2.17;;
14294;SDS011;7231;59.370;18.016;2023-12-20T00:23:43;12.00;;;2.03;;
14294;SDS011;7231;59.370;18.016;2023-12-20T00:26:11;6.20;;;1.40;;
14294;SDS011;7231;59.370;18.016;2023-12-20T00:28:39;11.87;;;1.93;;
14294;SDS011;7231;59.370;18.016;2023-12-20T00:31:07;8.73;;;1.47;;
14294;SDS011;7231;59.370;18.016;2023-12-20T00:33:36;12.47;;;1.37;;
14294;SDS011;7231;59.370;18.016;2023-12-20T00:36:07;12.43;;;2.03;;
14294;SDS011;7231;59.370;18.016;2023-12-20T00:38:36;11.10;;;1.80;;
14294;SDS011;7231;59.370;18.016;2023-12-20T00:41:04;6.23;;;1.27;;
14294;SDS011;7231;59.370;18.016;2023-12-20T00:43:32;10.30;;;1.93;;
14294;SDS011;7231;59.370;18.016;2023-12-20T00:46:00;11.60;;;1.93;;
14294;SDS011;7231;59.370;18.016;2023-12-20T00:48:28;11.87;;;2.23;;
14294;SDS011;7231;59.370;18.016;2023-12-20T00:50:57;11.70;;;2.00;;
14294;SDS011;7231;59.370;18.016;2023-12-20T00:53:27;12.33;;;1.87;;
14294;SDS011;7231;59.370;18.016;2023-12-20T00:55:55;8.90;;;1.80;;
14294;SDS011;7231;59.370;18.016;2023-12-20T00:58:25;11.20;;;2.17;;
14294;SDS011;7231;59.370;18.016;2023-12-20T01:00:54;10.87;;;2.30;;
14294;SDS011;7231;59.370;18.016;2023-12-20T01:03:22;10.73;;;2.53;;
14294;SDS011;7231;59.370;18.016;2023-12-20T01:05:50;15.00;;;2.40;;
14294;SDS011;7231;59.370;18.016;2023-12-20T01:08:19;12.47;;;2.43;;
14294;SDS011;7231;59.370;18.016;2023-12-20T01:10:48;10.47;;;1.83;;
14294;SDS011;7231;59.370;18.016;2023-12-20T01:13:16;9.87;;;2.03;;
14294;SDS011;7231;59.370;18.016;2023-12-20T01:15:45;16.80;;;2.40;;
14294;SDS011;7231;59.370;18.016;2023-12-20T01:18:13;10.60;;;2.07;;
14294;SDS011;7231;59.370;18.016;2023-12-20T01:20:42;17.37;;;2.00;;
14294;SDS011;7231;59.370;18.016;2023-12-20T01:23:10;11.33;;;1.93;;
14294;SDS011;7231;59.370;18.016;2023-12-20T01:25:38;12.37;;;2.63;;
14294;SDS011;7231;59.370;18.016;2023-12-20T01:28:08;14.33;;;2.80;;
14294;SDS011;7231;59.370;18.016;2023-12-20T01:30:36;15.43;;;2.33;;
14294;SDS011;7231;59.370;18.016;2023-12-20T01:33:04;14.83;;;2.97;;
14294;SDS011;7231;59.370;18.016;2023-12-20T01:35:33;16.43;;;2.67;;
14294;SDS011;7231;59.370;18.016;2023-12-20T01:38:01;13.03;;;2.10;;
14294;SDS011;7231;59.370;18.016;2023-12-20T01:40:29;7.87;;;2.20;;
14294;SDS011;7231;59.370;18.016;2023-12-20T01:42:57;12.17;;;2.07;;
14294;SDS011;7231;59.370;18.016;2023-12-20T01:45:28;12.07;;;1.90;;
14294;SDS011;7231;59.370;18.016;2023-12-20T01:47:56;10.37;;;2.10;;
14294;SDS011;7231;59.370;18.016;2023-12-20T01:50:26;12.63;;;2.47;;
14294;SDS011;7231;59.370;18.016;2023-12-20T01:52:56;10.93;;;2.00;;
14294;SDS011;7231;59.370;18.016;2023-12-20T01:55:26;11.73;;;1.77;;
14294;SDS011;7231;59.370;18.016;2023-12-20T01:57:57;13.47;;;1.93;;
14294;SDS011;7231;59.370;18.016;2023-12-20T02:00:28;10.53;;;1.50;;
14294;SDS011;7231;59.370;18.016;2023-12-20T02:02:57;10.20;;;1.77;;
14294;SDS011;7231;59.370;18.016;2023-12-20T02:05:29;10.87;;;2.00;;
14294;SDS011;7231;59.370;18.016;2023-12-20T02:07:57;8.57;;;1.30;;
14294;SDS011;7231;59.370;18.016;2023-12-20T02:10:25;14.03;;;2.30;;
14294;SDS011;7231;59.370;18.016;2023-12-20T02:12:54;11.67;;;1.90;;
14294;SDS011;7231;59.370;18.016;2023-12-20T02:15:23;14.70;;;2.40;;
14294;SDS011;7231;59.370;18.016;2023-12-20T02:17:52;11.17;;;2.40;;
14294;SDS011;7231;59.370;18.016;2023-12-20T02:20:21;17.80;;;2.20;;
14294;SDS011;7231;59.370;18.016;2023-12-20T02:22:51;14.93;;;2.07;;
14294;SDS011;7231;59.370;18.016;2023-12-20T02:25:19;15.03;;;1.70;;
14294;SDS011;7231;59.370;18.016;2023-12-20T02:27:48;16.43;;;1.80;;
14294;SDS011;7231;59.370;18.016;2023-12-20T02:30:16;14.70;;;2.00;;
14294;SDS011;7231;59.370;18.016;2023-12-20T02:32:45;13.83;;;2.23;;
14294;SDS011;7231;59.370;18.016;2023-12-20T02:35:13;16.53;;;2.17;;
14294;SDS011;7231;59.370;18.016;2023-12-20T02:37:41;12.10;;;1.73;;
14294;SDS011;7231;59.370;18.016;2023-12-20T02:40:11;7.33;;;1.50;;
14294;SDS011;7231;59.370;18.016;2023-12-20T02:42:40;15.50;;;2.03;;
14294;SDS011;7231;59.370;18.016;2023-12-20T02:45:08;19.60;;;2.30;;
14294;SDS011;7231;59.370;18.016;2023-12-20T02:47:36;13.73;;;2.60;;
14294;SDS011;7231;59.370;18.016;2023-12-20T02:50:04;6.00;;;0.97;;
14294;SDS011;7231;59.370;18.016;2023-12-20T02:52:33;8.60;;;2.10;;
14294;SDS011;7231;59.370;18.016;2023-12-20T02:55:01;12.00;;;1.97;;
14294;SDS011;7231;59.370;18.016;2023-12-20T02:57:31;7.50;;;1.47;;
14294;SDS011;7231;59.370;18.016;2023-12-20T02:59:59;12.10;;;1.80;;
14294;SDS011;7231;59.370;18.016;2023-12-20T03:02:28;15.50;;;2.30;;
14294;SDS011;7231;59.370;18.016;2023-12-20T03:04:56;11.07;;;1.60;;
14294;SDS011;7231;59.370;18.016;2023-12-20T03:07:26;11.20;;;2.43;;
14294;SDS011;7231;59.370;18.016;2023-12-20T03:09:54;16.23;;;2.27;;
14294;SDS011;7231;59.370;18.016;2023-12-20T03:12:42;13.23;;;2.07;;
14294;SDS011;7231;59.370;18.016;2023-12-20T03:15:10;10.97;;;1.70;;
14294;SDS011;7231;59.370;18.016;2023-12-20T03:17:38;9.63;;;1.73;;
14294;SDS011;7231;59.370;18.016;2023-12-20T03:20:07;19.13;;;2.20;;
14294;SDS011;7231;59.370;18.016;2023-12-20T03:22:36;10.07;;;1.73;;
14294;SDS011;7231;59.370;18.016;2023-12-20T03:25:04;9.17;;;1.63;;
14294;SDS011;7231;59.370;18.016;2023-12-20T03:27:33;7.87;;;2.00;;
14294;SDS011;7231;59.370;18.016;2023-12-20T03:30:02;9.97;;;1.83;;
14294;SDS011;7231;59.370;18.016;2023-12-20T03:32:31;14.07;;;2.03;;
14294;SDS011;7231;59.370;18.016;2023-12-20T03:34:59;11.60;;;1.93;;
14294;SDS011;7231;59.370;18.016;2023-12-20T03:37:28;12.63;;;2.13;;
14294;SDS011;7231;59.370;18.016;2023-12-20T03:39:56;9.17;;;1.70;;
14294;SDS011;7231;59.370;18.016;2023-12-20T03:42:24;10.40;;;2.23;;
14294;SDS011;7231;59.370;18.016;2023-12-20T03:44:52;8.37;;;2.03;;
14294;SDS011;7231;59.370;18.016;2023-12-20T03:47:21;12.90;;;2.20;;
14294;SDS011;7231;59.370;18.016;2023-12-20T03:49:50;8.77;;;2.37;;
14294;SDS011;7231;59.370;18.016;2023-12-20T03:52:18;17.40;;;2.03;;
14294;SDS011;7231;59.370;18.016;2023-12-20T03:54:46;14.73;;;2.60;;
14294;SDS011;7231;59.370;18.016;2023-12-20T03:57:15;11.67;;;1.87;;
14294;SDS011;7231;59.370;18.016;2023-12-20T03:59:43;12.77;;;2.40;;
14294;SDS011;7231;59.370;18.016;2023-12-20T04:02:11;11.37;;;2.03;;
14294;SDS011;7231;59.370;18.016;2023-12-20T04:04:40;6.60;;;1.60;;
14294;SDS011;7231;59.370;18.016;2023-12-20T04:07:08;14.50;;;2.57;;
14294;SDS011;7231;59.370;18.016;2023-12-20T04:09:37;11.83;;;2.43;;
14294;SDS011;7231;59.370;18.016;2023-12-20T04:12:05;8.43;;;1.97;;
14294;SDS011;7231;59.370;18.016;2023-12-20T04:14:33;15.60;;;1.90;;
14294;SDS011;7231;59.370;18.016;2023-12-20T04:17:02;13.03;;;1.90;;
14294;SDS011;7231;59.370;18.016;2023-12-20T04:19:30;9.57;;;2.07;;
14294;SDS011;7231;59.370;18.016;2023-12-20T04:22:00;13.67;;;2.37;;
14294;SDS011;7231;59.370;18.016;2023-12-20T04:24:28;13.90;;;2.30;;
14294;SDS011;7231;59.370;18.016;2023-12-20T04:26:57;11.60;;;1.97;;
14294;SDS011;7231;59.370;18.016;2023-12-20T04:29:25;6.83;;;1.70;;
14294;SDS011;7231;59.370;18.016;2023-12-20T04:31:53;11.10;;;2.20;;
14294;SDS011;7231;59.370;18.016;2023-12-20T04:34:22;7.47;;;1.53;;
14294;SDS011;7231;59.370;18.016;2023-12-20T04:36:50;6.23;;;1.60;;
14294;SDS011;7231;59.370;18.016;2023-12-20T04:39:20;10.10;;;1.67;;
14294;SDS011;7231;59.370;18.016;2023-12-20T04:41:48;11.27;;;2.50;;
14294;SDS011;7231;59.370;18.016;2023-12-20T04:44:16;8.70;;;1.70;;
14294;SDS011;7231;59.370;18.016;2023-12-20T04:46:44;14.57;;;2.30;;
14294;SDS011;7231;59.370;18.016;2023-12-20T04:49:12;5.87;;;1.50;;
14294;SDS011;7231;59.370;18.016;2023-12-20T04:51:41;11.53;;;1.93;;
14294;SDS011;7231;59.370;18.016;2023-12-20T04:54:09;7.83;;;1.90;;
14294;SDS011;7231;59.370;18.016;2023-12-20T04:56:38;9.17;;;2.47;;
14294;SDS011;7231;59.370;18.016;2023-12-20T04:59:06;6.90;;;1.37;;
14294;SDS011;7231;59.370;18.016;2023-12-20T05:01:35;6.63;;;2.10;;
14294;SDS011;7231;59.370;18.016;2023-12-20T05:04:03;13.10;;;2.43;;
14294;SDS011;7231;59.370;18.016;2023-12-20T05:06:31;9.67;;;2.17;;
14294;SDS011;7231;59.370;18.016;2023-12-20T05:08:59;11.57;;;2.77;;
14294;SDS011;7231;59.370;18.016;2023-12-20T05:11:28;10.63;;;2.47;;
14294;SDS011;7231;59.370;18.016;2023-12-20T05:13:57;10.20;;;2.30;;
14294;SDS011;7231;59.370;18.016;2023-12-20T05:16:25;10.47;;;2.30;;
14294;SDS011;7231;59.370;18.016;2023-12-20T05:18:54;12.40;;;2.60;;
14294;SDS011;7231;59.370;18.016;2023-12-20T05:21:22;9.63;;;2.23;;
14294;SDS011;7231;59.370;18.016;2023-12-20T05:23:52;10.63;;;2.30;;
14294;SDS011;7231;59.370;18.016;2023-12-20T05:26:20;9.77;;;2.20;;
14294;SDS011;7231;59.370;18.016;2023-12-20T05:28:48;9.33;;;2.40;;
14294;SDS011;7231;59.370;18.016;2023-12-20T05:31:17;5.60;;;1.40;;
14294;SDS011;7231;59.370;18.016;2023-12-20T05:33:46;7.17;;;2.03;;
14294;SDS011;7231;59.370;18.016;2023-12-20T05:36:14;7.40;;;1.90;;
14294;SDS011;7231;59.370;18.016;2023-12-20T05:38:42;8.63;;;2.60;;
14294;SDS011;7231;59.370;18.016;2023-12-20T05:41:11;9.57;;;2.30;;
14294;SDS011;7231;59.370;18.016;2023-12-20T05:43:39;9.80;;;2.47;;
14294;SDS011;7231;59.370;18.016;2023-12-20T05:46:09;7.23;;;2.53;;
14294;SDS011;7231;59.370;18.016;2023-12-20T05:48:39;11.13;;;2.47;;
14294;SDS011;7231;59.370;18.016;2023-12-20T05:51:07;5.17;;;2.10;;
14294;SDS011;7231;59.370;18.016;2023-12-20T05:53:39;7.37;;;2.47;;
14294;SDS011;7231;59.370;18.016;2023-12-20T05:56:07;11.90;;;2.83;;
14294;SDS011;7231;59.370;18.016;2023-12-20T05:58:35;11.87;;;3.10;;
14294;SDS011;7231;59.370;18.016;2023-12-20T06:01:04;10.27;;;2.63;;
14294;SDS011;7231;59.370;18.016;2023-12-20T06:03:34;10.13;;;2.97;;
14294;SDS011;7231;59.370;18.016;2023-12-20T06:06:06;10.40;;;2.83;;
14294;SDS011;7231;59.370;18.016;2023-12-20T06:08:42;12.37;;;3.33;;
14294;SDS011;7231;59.370;18.016;2023-12-20T06:11:11;10.40;;;3.00;;
14294;SDS011;7231;59.370;18.016;2023-12-20T06:13:40;15.53;;;3.33;;
14294;SDS011;7231;59.370;18.016;2023-12-20T06:16:08;9.33;;;3.47;;
14294;SDS011;7231;59.370;18.016;2023-12-20T06:18:36;13.53;;;3.80;;
14294;SDS011;7231;59.370;18.016;2023-12-20T06:21:06;21.97;;;4.23;;
14294;SDS011;7231;59.370;18.016;2023-12-20T06:23:34;20.10;;;3.50;;
14294;SDS011;7231;59.370;18.016;2023-12-20T06:26:03;20.03;;;6.10;;
14294;SDS011;7231;59.370;18.016;2023-12-20T06:28:31;19.87;;;4.77;;
14294;SDS011;7231;59.370;18.016;2023-12-20T06:30:59;31.97;;;5.73;;
14294;SDS011;7231;59.370;18.016;2023-12-20T06:33:28;13.53;;;4.30;;
14294;SDS011;7231;59.370;18.016;2023-12-20T06:35:57;20.23;;;5.33;;
14294;SDS011;7231;59.370;18.016;2023-12-20T06:38:27;20.07;;;4.97;;
14294;SDS011;7231;59.370;18.016;2023-12-20T06:40:55;16.77;;;4.60;;
14294;SDS011;7231;59.370;18.016;2023-12-20T06:43:25;31.50;;;4.80;;
14294;SDS011;7231;59.370;18.016;2023-12-20T06:46:11;28.83;;;5.90;;
14294;SDS011;7231;59.370;18.016;2023-12-20T06:48:40;45.73;;;5.43;;
14294;SDS011;7231;59.370;18.016;2023-12-20T06:51:10;44.87;;;4.77;;
14294;SDS011;7231;59.370;18.016;2023-12-20T06:53:41;26.40;;;5.77;;
14294;SDS011;7231;59.370;18.016;2023-12-20T06:56:10;21.97;;;5.37;;
14294;SDS011;7231;59.370;18.016;2023-12-20T06:58:44;36.73;;;6.13;;
14294;SDS011;7231;59.370;18.016;2023-12-20T07:01:12;19.43;;;4.67;;
14294;SDS011;7231;59.370;18.016;2023-12-20T07:03:41;23.97;;;5.10;;
14294;SDS011;7231;59.370;18.016;2023-12-20T07:06:09;23.97;;;5.23;;
14294;SDS011;7231;59.370;18.016;2023-12-20T07:08:38;34.00;;;4.77;;
14294;SDS011;7231;59.370;18.016;2023-12-20T07:11:09;17.07;;;2.90;;
14294;SDS011;7231;59.370;18.016;2023-12-20T07:13:37;33.37;;;5.00;;
14294;SDS011;7231;59.370;18.016;2023-12-20T07:16:05;16.67;;;4.13;;
14294;SDS011;7231;59.370;18.016;2023-12-20T07:18:34;21.03;;;4.93;;
14294;SDS011;7231;59.370;18.016;2023-12-20T07:21:02;16.57;;;5.07;;
14294;SDS011;7231;59.370;18.016;2023-12-20T07:23:30;16.93;;;4.80;;
14294;SDS011;7231;59.370;18.016;2023-12-20T07:25:59;17.17;;;6.13;;
14294;SDS011;7231;59.370;18.016;2023-12-20T07:28:28;19.60;;;5.17;;
14294;SDS011;7231;59.370;18.016;2023-12-20T07:30:56;17.53;;;5.80;;
14294;SDS011;7231;59.370;18.016;2023-12-20T07:33:25;20.10;;;6.70;;
14294;SDS011;7231;59.370;18.016;2023-12-20T07:35:53;23.83;;;8.13;;
14294;SDS011;7231;59.370;18.016;2023-12-20T07:38:21;24.33;;;8.03;;
14294;SDS011;7231;59.370;18.016;2023-12-20T07:40:49;19.57;;;7.17;;
14294;SDS011;7231;59.370;18.016;2023-12-20T07:43:17;27.43;;;8.73;;
14294;SDS011;7231;59.370;18.016;2023-12-20T07:45:47;33.60;;;9.77;;
14294;SDS011;7231;59.370;18.016;2023-12-20T07:48:15;27.33;;;9.37;;
14294;SDS011;7231;59.370;18.016;2023-12-20T07:50:44;31.17;;;9.47;;
14294;SDS011;7231;59.370;18.016;2023-12-20T07:53:12;23.93;;;9.03;;
14294;SDS011;7231;59.370;18.016;2023-12-20T07:55:40;31.07;;;9.50;;
14294;SDS011;7231;59.370;18.016;2023-12-20T07:58:09;28.20;;;9.50;;
14294;SDS011;7231;59.370;18.016;2023-12-20T08:00:37;28.07;;;8.50;;
14294;SDS011;7231;59.370;18.016;2023-12-20T08:03:07;25.70;;;9.60;;
14294;SDS011;7231;59.370;18.016;2023-12-20T08:05:35;22.17;;;8.63;;
14294;SDS011;7231;59.370;18.016;2023-12-20T08:08:03;28.30;;;8.00;;
14294;SDS011;7231;59.370;18.016;2023-12-20T08:10:32;26.63;;;8.90;;
14294;SDS011;7231;59.370;18.016;2023-12-20T08:13:01;30.63;;;8.20;;
14294;SDS011;7231;59.370;18.016;2023-12-20T08:15:29;19.20;;;7.40;;
14294;SDS011;7231;59.370;18.016;2023-12-20T08:17:57;18.73;;;7.43;;
14294;SDS011;7231;59.370;18.016;2023-12-20T08:20:27;20.77;;;6.90;;
14294;SDS011;7231;59.370;18.016;2023-12-20T08:23:05;19.47;;;6.67;;
14294;SDS011;7231;59.370;18.016;2023-12-20T08:25:33;17.60;;;6.43;;
14294;SDS011;7231;59.370;18.016;2023-12-20T08:28:02;17.77;;;6.30;;
14294;SDS011;7231;59.370;18.016;2023-12-20T08:30:31;19.57;;;6.03;;
14294;SDS011;7231;59.370;18.016;2023-12-20T08:32:59;16.70;;;6.33;;
14294;SDS011;7231;59.370;18.016;2023-12-20T08:35:29;18.17;;;5.93;;
14294;SDS011;7231;59.370;18.016;2023-12-20T08:37:58;17.33;;;6.13;;
14294;SDS011;7231;59.370;18.016;2023-12-20T08:40:26;15.20;;;6.13;;
14294;SDS011;7231;59.370;18.016;2023-12-20T08:42:54;20.40;;;5.60;;
14294;SDS011;7231;59.370;18.016;2023-12-20T08:45:22;18.67;;;5.80;;
14294;SDS011;7231;59.370;18.016;2023-12-20T08:47:51;16.80;;;5.93;;
14294;SDS011;7231;59.370;18.016;2023-12-20T08:50:19;16.30;;;5.37;;
14294;SDS011;7231;59.370;18.016;2023-12-20T08:52:49;16.03;;;5.07;;
14294;SDS011;7231;59.370;18.016;2023-12-20T08:55:17;12.60;;;5.23;;
14294;SDS011;7231;59.370;18.016;2023-12-20T08:57:45;13.67;;;5.13;;
14294;SDS011;7231;59.370;18.016;2023-12-20T09:00:14;12.67;;;5.40;;
14294;SDS011;7231;59.370;18.016;2023-12-20T09:02:42;14.47;;;4.80;;
14294;SDS011;7231;59.370;18.016;2023-12-20T09:05:10;12.97;;;4.77;;
14294;SDS011;7231;59.370;18.016;2023-12-20T09:07:38;14.93;;;4.67;;
14294;SDS011;7231;59.370;18.016;2023-12-20T09:10:08;18.33;;;5.00;;
14294;SDS011;7231;59.370;18.016;2023-12-20T09:12:36;13.10;;;4.77;;
14294;SDS011;7231;59.370;18.016;2023-12-20T09:15:07;16.23;;;4.83;;
14294;SDS011;7231;59.370;18.016;2023-12-20T09:17:36;16.20;;;5.23;;
14294;SDS011;7231;59.370;18.016;2023-12-20T09:20:04;10.40;;;4.97;;
14294;SDS011;7231;59.370;18.016;2023-12-20T09:22:34;16.27;;;5.60;;
14294;SDS011;7231;59.370;18.016;2023-12-20T09:25:05;14.17;;;5.23;;
14294;SDS011;7231;59.370;18.016;2023-12-20T09:27:35;14.40;;;6.43;;
14294;SDS011;7231;59.370;18.016;2023-12-20T09:30:03;14.90;;;5.00;;
14294;SDS011;7231;59.370;18.016;2023-12-20T09:32:32;13.00;;;5.17;;
14294;SDS011;7231;59.370;18.016;2023-12-20T09:35:01;16.60;;;5.10;;
14294;SDS011;7231;59.370;18.016;2023-12-20T09:37:32;14.87;;;5.43;;
14294;SDS011;7231;59.370;18.016;2023-12-20T09:40:00;14.30;;;4.97;;
14294;SDS011;7231;59.370;18.016;2023-12-20T09:42:30;16.40;;;5.47;;
14294;SDS011;7231;59.370;18.016;2023-12-20T09:45:07;16.97;;;5.30;;
14294;SDS011;7231;59.370;18.016;2023-12-20T09:47:37;13.97;;;5.20;;
14294;SDS011;7231;59.370;18.016;2023-12-20T09:50:05;18.13;;;5.00;;
14294;SDS011;7231;59.370;18.016;2023-12-20T09:52:34;12.23;;;3.87;;
14294;SDS011;7231;59.370;18.016;2023-12-20T09:55:04;11.93;;;3.43;;
14294;SDS011;7231;59.370;18.016;2023-12-20T09:57:33;17.50;;;3.87;;
14294;SDS011;7231;59.370;18.016;2023-12-20T10:00:03;12.87;;;3.47;;
14294;SDS011;7231;59.370;18.016;2023-12-20T10:02:34;10.53;;;3.30;;
14294;SDS011;7231;59.370;18.016;2023-12-20T10:05:09;10.43;;;3.50;;
14294;SDS011;7231;59.370;18.016;2023-12-20T10:07:46;12.73;;;3.33;;
14294;SDS011;7231;59.370;18.016;2023-12-20T10:10:15;10.37;;;3.67;;
14294;SDS011;7231;59.370;18.016;2023-12-20T10:12:46;16.33;;;3.30;;
14294;SDS011;7231;59.370;18.016;2023-12-20T10:15:31;9.53;;;3.30;;
14294;SDS011;7231;59.370;18.016;2023-12-20T10:18:00;29.63;;;11.03;;
14294;SDS011;7231;59.370;18.016;2023-12-20T10:20:28;9.73;;;3.30;;
14294;SDS011;7231;59.370;18.016;2023-12-20T10:22:57;20.47;;;6.40;;
14294;SDS011;7231;59.370;18.016;2023-12-20T10:25:26;12.37;;;3.47;;
14294;SDS011;7231;59.370;18.016;2023-12-20T10:28:08;12.63;;;3.03;;
14294;SDS011;7231;59.370;18.016;2023-12-20T10:30:40;10.50;;;3.67;;
14294;SDS011;7231;59.370;18.016;2023-12-20T10:33:09;12.50;;;3.10;;
14294;SDS011;7231;59.370;18.016;2023-12-20T10:35:38;11.07;;;3.20;;
14294;SDS011;7231;59.370;18.016;2023-12-20T10:38:12;14.93;;;3.37;;
14294;SDS011;7231;59.370;18.016;2023-12-20T10:40:42;9.93;;;3.27;;
14294;SDS011;7231;59.370;18.016;2023-12-20T10:43:13;14.10;;;3.60;;
14294;SDS011;7231;59.370;18.016;2023-12-20T10:45:43;10.77;;;3.60;;
14294;SDS011;7231;59.370;18.016;2023-12-20T10:48:11;10.90;;;2.70;;
14294;SDS011;7231;59.370;18.016;2023-12-20T10:50:40;17.13;;;4.53;;
14294;SDS011;7231;59.370;18.016;2023-12-20T10:53:09;12.27;;;2.93;;
14294;SDS011;7231;59.370;18.016;2023-12-20T10:55:38;15.33;;;2.77;;
14294;SDS011;7231;59.370;18.016;2023-12-20T10:58:07;12.07;;;3.17;;
14294;SDS011;7231;59.370;18.016;2023-12-20T11:00:39;14.20;;;3.60;;
14294;SDS011;7231;59.370;18.016;2023-12-20T11:03:09;13.83;;;3.87;;
14294;SDS011;7231;59.370;18.016;2023-12-20T11:05:41;12.43;;;2.83;;
14294;SDS011;7231;59.370;18.016;2023-12-20T11:08:19;10.77;;;2.90;;
14294;SDS011;7231;59.370;18.016;2023-12-20T11:10:55;9.67;;;2.83;;
14294;SDS011;7231;59.370;18.016;2023-12-20T11:13:31;14.40;;;3.50;;
14294;SDS011;7231;59.370;18.016;2023-12-20T11:16:03;10.93;;;2.60;;
14294;SDS011;7231;59.370;18.016;2023-12-20T11:18:34;9.83;;;2.43;;
14294;SDS011;7231;59.370;18.016;2023-12-20T11:21:04;10.60;;;3.50;;
14294;SDS011;7231;59.370;18.016;2023-12-20T11:23:32;15.67;;;4.03;;
14294;SDS011;7231;59.370;18.016;2023-12-20T11:26:02;8.90;;;3.10;;
14294;SDS011;7231;59.370;18.016;2023-12-20T11:28:30;7.60;;;2.30;;
14294;SDS011;7231;59.370;18.016;2023-12-20T11:31:00;12.37;;;3.73;;
14294;SDS011;7231;59.370;18.016;2023-12-20T11:33:30;8.23;;;2.67;;
14294;SDS011;7231;59.370;18.016;2023-12-20T11:36:14;15.70;;;3.20;;
14294;SDS011;7231;59.370;18.016;2023-12-20T11:38:50;9.73;;;2.90;;
14294;SDS011;7231;59.370;18.016;2023-12-20T11:41:24;13.37;;;3.40;;
14294;SDS011;7231;59.370;18.016;2023-12-20T11:43:53;14.73;;;3.37;;
14294;SDS011;7231;59.370;18.016;2023-12-20T11:46:22;12.60;;;3.07;;
14294;SDS011;7231;59.370;18.016;2023-12-20T11:48:50;7.53;;;2.40;;
14294;SDS011;7231;59.370;18.016;2023-12-20T11:51:20;5.77;;;2.30;;
14294;SDS011;7231;59.370;18.016;2023-12-20T11:53:51;10.47;;;2.13;;
14294;SDS011;7231;59.370;18.016;2023-12-20T11:56:19;9.63;;;3.10;;
14294;SDS011;7231;59.370;18.016;2023-12-20T11:58:48;7.60;;;2.93;;
14294;SDS011;7231;59.370;18.016;2023-12-20T12:01:17;6.20;;;2.23;;
14294;SDS011;7231;59.370;18.016;2023-12-20T12:03:48;4.93;;;2.27;;
14294;SDS011;7231;59.370;18.016;2023-12-20T12:06:16;7.77;;;2.80;;
14294;SDS011;7231;59.370;18.016;2023-12-20T12:08:46;4.87;;;2.17;;
14294;SDS011;7231;59.370;18.016;2023-12-20T12:11:14;7.27;;;3.43;;
14294;SDS011;7231;59.370;18.016;2023-12-20T12:13:42;6.77;;;2.50;;
14294;SDS011;7231;59.370;18.016;2023-12-20T12:16:10;6.63;;;2.43;;
14294;SDS011;7231;59.370;18.016;2023-12-20T12:18:38;6.07;;;2.30;;
14294;SDS011;7231;59.370;18.016;2023-12-20T12:21:08;5.73;;;2.80;;
14294;SDS011;7231;59.370;18.016;2023-12-20T12:23:45;5.03;;;2.40;;
14294;SDS011;7231;59.370;18.016;2023-12-20T12:26:13;10.63;;;3.20;;
14294;SDS011;7231;59.370;18.016;2023-12-20T12:28:42;6.30;;;2.77;;
14294;SDS011;7231;59.370;18.016;2023-12-20T12:31:13;6.40;;;2.60;;
14294;SDS011;7231;59.370;18.016;2023-12-20T12:33:43;7.37;;;2.53;;
14294;SDS011;7231;59.370;18.016;2023-12-20T12:36:12;5.93;;;2.37;;
14294;SDS011;7231;59.370;18.016;2023-12-20T12:38:42;4.27;;;2.37;;
14294;SDS011;7231;59.370;18.016;2023-12-20T12:41:13;8.20;;;3.53;;
14294;SDS011;7231;59.370;18.016;2023-12-20T12:43:42;7.37;;;2.37;;
14294;SDS011;7231;59.370;18.016;2023-12-20T12:46:11;5.13;;;2.07;;
14294;SDS011;7231;59.370;18.016;2023-12-20T12:48:39;4.57;;;2.43;;
14294;SDS011;7231;59.370;18.016;2023-12-20T12:51:11;4.90;;;2.20;;
14294;SDS011;7231;59.370;18.016;2023-12-20T12:53:40;3.90;;;2.23;;
14294;SDS011;7231;59.370;18.016;2023-12-20T12:56:08;8.57;;;2.80;;
14294;SDS011;7231;59.370;18.016;2023-12-20T12:58:38;3.77;;;1.93;;
14294;SDS011;7231;59.370;18.016;2023-12-20T13:01:06;4.80;;;2.27;;
14294;SDS011;7231;59.370;18.016;2023-12-20T13:03:35;4.37;;;2.10;;
14294;SDS011;7231;59.370;18.016;2023-12-20T13:06:03;5.43;;;2.00;;
14294;SDS011;7231;59.370;18.016;2023-12-20T13:08:32;4.67;;;2.63;;
14294;SDS011;7231;59.370;18.016;2023-12-20T13:11:00;4.00;;;2.03;;
14294;SDS011;7231;59.370;18.016;2023-12-20T13:13:30;2.63;;;2.10;;
14294;SDS011;7231;59.370;18.016;2023-12-20T13:16:00;3.77;;;2.13;;
14294;SDS011;7231;59.370;18.016;2023-12-20T13:18:29;3.43;;;2.00;;
14294;SDS011;7231;59.370;18.016;2023-12-20T13:20:57;3.77;;;2.30;;
14294;SDS011;7231;59.370;18.016;2023-12-20T13:23:25;4.07;;;2.70;;
14294;SDS011;7231;59.370;18.016;2023-12-20T13:25:53;8.27;;;2.70;;
14294;SDS011;7231;59.370;18.016;2023-12-20T13:28:21;4.30;;;2.90;;
14294;SDS011;7231;59.370;18.016;2023-12-20T13:30:50;6.10;;;3.50;;
14294;SDS011;7231;59.370;18.016;2023-12-20T13:33:19;8.07;;;2.83;;
14294;SDS011;7231;59.370;18.016;2023-12-20T13:35:48;8.53;;;3.17;;
14294;SDS011;7231;59.370;18.016;2023-12-20T13:38:16;7.47;;;3.43;;
14294;SDS011;7231;59.370;18.016;2023-12-20T13:40:44;6.97;;;2.63;;
14294;SDS011;7231;59.370;18.016;2023-12-20T13:43:12;6.00;;;2.57;;
14294;SDS011;7231;59.370;18.016;2023-12-20T13:45:40;7.03;;;3.23;;
14294;SDS011;7231;59.370;18.016;2023-12-20T13:48:08;6.90;;;2.77;;
14294;SDS011;7231;59.370;18.016;2023-12-20T13:50:38;5.57;;;3.10;;
14294;SDS011;7231;59.370;18.016;2023-12-20T13:53:06;8.73;;;3.37;;
14294;SDS011;7231;59.370;18.016;2023-12-20T13:55:34;8.20;;;3.33;;
14294;SDS011;7231;59.370;18.016;2023-12-20T13:58:02;8.93;;;3.07;;
14294;SDS011;7231;59.370;18.016;2023-12-20T14:00:31;5.10;;;2.70;;
14294;SDS011;7231;59.370;18.016;2023-12-20T14:02:59;7.37;;;3.10;;
14294;SDS011;7231;59.370;18.016;2023-12-20T14:05:28;6.73;;;2.93;;
14294;SDS011;7231;59.370;18.016;2023-12-20T14:07:58;6.03;;;3.53;;
14294;SDS011;7231;59.370;18.016;2023-12-20T14:10:27;6.83;;;2.53;;
14294;SDS011;7231;59.370;18.016;2023-12-20T14:12:55;10.07;;;2.83;;
14294;SDS011;7231;59.370;18.016;2023-12-20T14:15:24;9.67;;;3.60;;
14294;SDS011;7231;59.370;18.016;2023-12-20T14:17:52;6.90;;;2.80;;
14294;SDS011;7231;59.370;18.016;2023-12-20T14:20:21;8.43;;;2.87;;
14294;SDS011;7231;59.370;18.016;2023-12-20T14:22:49;9.70;;;3.20;;
14294;SDS011;7231;59.370;18.016;2023-12-20T14:25:19;9.03;;;3.10;;
14294;SDS011;7231;59.370;18.016;2023-12-20T14:27:49;8.37;;;3.00;;
14294;SDS011;7231;59.370;18.016;2023-12-20T14:30:17;8.77;;;3.17;;
14294;SDS011;7231;59.370;18.016;2023-12-20T14:32:46;11.33;;;3.10;;
14294;SDS011;7231;59.370;18.016;2023-12-20T14:35:14;8.87;;;2.60;;
14294;SDS011;7231;59.370;18.016;2023-12-20T14:37:43;9.40;;;3.57;;
14294;SDS011;7231;59.370;18.016;2023-12-20T14:40:12;8.20;;;3.07;;
14294;SDS011;7231;59.370;18.016;2023-12-20T14:42:44;8.43;;;2.97;;
14294;SDS011;7231;59.370;18.016;2023-12-20T14:45:13;9.20;;;3.27;;
14294;SDS011;7231;59.370;18.016;2023-12-20T14:47:42;6.47;;;2.53;;
14294;SDS011;7231;59.370;18.016;2023-12-20T14:50:12;7.30;;;2.80;;